aviador You're here:

OIMS Decoded Metar

SABZEVAR in IRAN
Report Time2018-07-22 07:00:00
UTC Time2018-07-22 07:13:42
Flight Rules vfr VFR
Wind060° at 12 kt
W.Decomp.*RWY 09: 10.1 kt HW 6.5 kt LCW
W.Rank060° ranks 2
Current wind is above 060° avg. (10.0)
Visibility9999 m
Phenomena:N/A
Clouds:N/A
Expected CloudBase > 12,400 ft AGL from Temp-Dew spread
CeilingNone
Temp39°C (ISA +30)
Dew Point08°C (15% RH)
Heat Index36.8°C
AAT34.1°C
QNH1009 hPa
Density Alt6,729 ft
Elevation3,087 ft
Report Wrong Elevation
Raw Report
METAR OIMS 220700Z 06012KT CAVOK 39/08 Q1009=

Extra information for OIMS:More info

Metar Taf Metar & Taf Last 4 Metars F.Rules Stats Wind Profile Meteogram Temp Stats Airport Information Weather charts Add Link Nearby VenuesMetar ALERT Operation Metar Decoded Social comments